sim
Sign-in with your pilot id or email,
or register
Callsign
Passwort

Schedule Details

Flight Number: OEC025
Departure: Hurghada International Airport (HEGN) at Time
Arrival: Munich Airport (EDDM) at Time
Route: BOTI1B BOTIX AST P751 KATAB B12 DBA L551 ANTAR UN133 EVIVI L863 OKANA BABIT GOTAR VATET REDBU Q112 NAPSA NAPS2A

Weather Information
Getting current METAR information for HEGN 282100Z 30003KT CAVOK 29/15 Q1010 NOSIG
Getting current METAR information for EDDM 282250Z 09002KT 9999 SCT048 08/07 Q1016 NOSIG

Schedule Frequency

Route Map